createdAt,value
2018-10-18T00:00:47.624Z,39.67
2018-10-18T00:04:55.899Z,39.70
2018-10-18T00:09:05.803Z,36.30
2018-10-18T00:13:15.364Z,40.10
2018-10-18T00:17:29.008Z,36.50
2018-10-18T00:21:37.164Z,36.40
2018-10-18T00:25:45.355Z,37.10
2018-10-18T00:29:53.590Z,41.13
2018-10-18T00:34:01.758Z,39.27
2018-10-18T00:38:09.933Z,37.70
2018-10-18T00:42:18.163Z,39.70
2018-10-18T00:46:26.257Z,40.30
2018-10-18T00:50:34.417Z,47.40
2018-10-18T00:54:42.580Z,45.98
2018-10-18T00:58:50.765Z,45.37
2018-10-18T01:02:58.936Z,38.10
2018-10-18T01:07:07.077Z,35.13
2018-10-18T01:11:15.227Z,41.23
2018-10-18T01:15:23.344Z,35.23
2018-10-18T01:19:33.502Z,40.73
2018-10-18T01:23:41.624Z,41.27
2018-10-18T01:27:49.739Z,38.20
2018-10-18T01:31:58.246Z,35.40
2018-10-18T01:36:06.432Z,41.50
2018-10-18T01:40:14.495Z,43.30
2018-10-18T01:44:22.684Z,44.67
2018-10-18T01:48:30.809Z,45.37
2018-10-18T01:52:38.928Z,43.87
2018-10-18T01:56:47.063Z,46.63
2018-10-18T02:00:55.347Z,40.17
2018-10-18T02:05:03.476Z,41.73
2018-10-18T02:09:12.527Z,46.87
2018-10-18T02:13:20.652Z,42.97
2018-10-18T02:17:29.027Z,39.87
2018-10-18T02:21:37.243Z,45.93
2018-10-18T02:25:45.415Z,42.87
2018-10-18T02:29:53.607Z,42.00
2018-10-18T02:34:01.732Z,40.20
2018-10-18T02:38:10.140Z,43.10
2018-10-18T02:42:18.391Z,42.50
2018-10-18T02:46:26.451Z,41.77
2018-10-18T02:50:34.609Z,41.57
2018-10-18T02:54:42.755Z,41.73
2018-10-18T02:58:50.907Z,42.67
2018-10-18T03:02:59.043Z,42.60
2018-10-18T03:07:07.365Z,40.53
2018-10-18T03:11:15.528Z,41.70
2018-10-18T03:15:23.671Z,45.23
2018-10-18T03:19:31.826Z,45.50
2018-10-18T03:23:39.996Z,42.23
2018-10-18T03:27:48.143Z,39.27
2018-10-18T03:31:56.286Z,44.20
2018-10-18T03:36:04.530Z,43.50
2018-10-18T03:40:12.616Z,45.53
2018-10-18T03:44:20.751Z,43.50
2018-10-18T03:48:28.951Z,57.90
2018-10-18T03:52:37.138Z,46.67
2018-10-18T03:56:45.287Z,44.40
2018-10-18T04:00:53.457Z,51.73
2018-10-18T04:05:01.588Z,54.50
2018-10-18T04:09:10.528Z,54.87
2018-10-18T04:13:18.692Z,68.37
2018-10-18T04:17:26.807Z,73.83
2018-10-18T04:21:34.984Z,61.07
2018-10-18T04:25:43.128Z,67.07
2018-10-18T04:29:51.252Z,77.97
2018-10-18T04:33:59.440Z,80.60
2018-10-18T04:38:07.568Z,80.93
2018-10-18T04:42:15.816Z,71.13
2018-10-18T04:46:23.814Z,61.20
2018-10-18T04:50:31.969Z,58.90
2018-10-18T04:54:40.411Z,81.03
2018-10-18T04:58:48.567Z,74.00
2018-10-18T05:02:56.697Z,90.30
2018-10-18T05:07:08.134Z,77.27
2018-10-18T05:11:16.127Z,75.07
2018-10-18T05:15:24.302Z,69.43
2018-10-18T05:19:32.416Z,75.70
2018-10-18T05:23:40.551Z,95.43
2018-10-18T05:27:48.724Z,99.43
2018-10-18T05:31:56.931Z,141.10
2018-10-18T05:36:05.192Z,151.23
2018-10-18T05:40:13.419Z,160.10
2018-10-18T05:44:21.568Z,181.37
2018-10-18T05:48:29.719Z,167.10
2018-10-18T05:52:37.855Z,163.90
2018-10-18T05:56:46.063Z,176.07
2018-10-18T06:00:54.251Z,181.37
2018-10-18T06:05:02.416Z,193.83
2018-10-18T06:09:12.175Z,184.57
2018-10-18T06:13:20.386Z,201.13
2018-10-18T06:17:28.471Z,181.80
2018-10-18T06:21:36.636Z,209.43
2018-10-18T06:25:44.807Z,226.30
2018-10-18T06:29:52.969Z,187.83
2018-10-18T06:34:01.207Z,194.17
2018-10-18T06:38:09.360Z,213.80
2018-10-18T06:42:17.583Z,143.60
2018-10-18T06:46:25.746Z,192.40
2018-10-18T06:50:33.947Z,220.50
2018-10-18T06:54:42.097Z,204.23
2018-10-18T06:58:50.254Z,187.93
2018-10-18T07:02:58.394Z,203.63
2018-10-18T07:07:06.572Z,228.27
2018-10-18T07:11:14.728Z,210.43
2018-10-18T07:15:22.896Z,196.73
2018-10-18T07:19:31.044Z,164.37
2018-10-18T07:23:39.208Z,155.40
2018-10-18T07:27:47.367Z,151.70
2018-10-18T07:31:55.516Z,189.83
2018-10-18T07:36:03.663Z,181.13
2018-10-18T07:40:15.227Z,195.67
2018-10-18T07:44:23.355Z,180.53
2018-10-18T07:48:31.494Z,167.53
2018-10-18T07:52:39.617Z,159.77
2018-10-18T07:56:47.741Z,168.50
2018-10-18T08:00:55.896Z,158.83
2018-10-18T08:05:04.752Z,151.40
2018-10-18T08:09:13.770Z,143.00
2018-10-18T08:13:21.987Z,147.53
2018-10-18T08:17:30.167Z,135.60
2018-10-18T08:21:38.220Z,141.37
2018-10-18T08:25:46.372Z,112.17
2018-10-18T08:29:54.540Z,130.45
2018-10-18T08:34:02.692Z,125.20
2018-10-18T08:38:10.960Z,122.27
2018-10-18T08:42:18.996Z,118.47
2018-10-18T08:46:27.439Z,121.77
2018-10-18T08:50:35.572Z,126.57
2018-10-18T08:54:43.719Z,118.87
2018-10-18T08:58:51.880Z,107.73
2018-10-18T09:03:00.034Z,113.57
2018-10-18T09:07:08.234Z,122.87
2018-10-18T09:11:16.317Z,110.97
2018-10-18T09:15:24.467Z,117.87
2018-10-18T09:19:32.631Z,117.22
2018-10-18T09:23:40.825Z,112.13
2018-10-18T09:27:48.915Z,112.63
2018-10-18T09:31:57.072Z,116.00
2018-10-18T09:36:05.503Z,107.27
2018-10-18T09:40:13.635Z,106.27
2018-10-18T09:44:21.858Z,106.60
2018-10-18T09:48:29.983Z,116.43
2018-10-18T09:52:38.127Z,102.40
2018-10-18T09:56:46.294Z,105.13
2018-10-18T10:00:59.889Z,110.17
2018-10-18T10:05:08.028Z,109.03
2018-10-18T10:09:16.174Z,115.50
2018-10-18T10:13:24.478Z,111.60
2018-10-18T10:17:32.533Z,99.83
2018-10-18T10:21:40.646Z,114.50
2018-10-18T10:25:48.810Z,100.73
2018-10-18T10:29:56.959Z,101.60
2018-10-18T10:34:05.123Z,99.90
2018-10-18T10:38:13.479Z,107.23
2018-10-18T10:42:21.644Z,118.67
2018-10-18T10:46:29.799Z,110.27
2018-10-18T10:50:37.987Z,116.50
2018-10-18T10:54:46.150Z,108.00
2018-10-18T10:58:54.327Z,109.63
2018-10-18T11:03:02.469Z,118.97
2018-10-18T11:07:10.603Z,116.90
2018-10-18T11:11:19.227Z,107.43
2018-10-18T11:15:27.371Z,107.63
2018-10-18T11:19:35.551Z,91.27
2018-10-18T11:23:43.740Z,97.27
2018-10-18T11:27:51.887Z,87.23
2018-10-18T11:32:00.056Z,88.30
2018-10-18T11:36:08.261Z,87.00
2018-10-18T11:40:16.328Z,86.17
2018-10-18T11:44:30.024Z,82.00
2018-10-18T11:48:38.143Z,92.33
2018-10-18T11:52:46.281Z,86.37
2018-10-18T11:56:54.410Z,83.60
2018-10-18T12:01:02.575Z,91.83
2018-10-18T12:05:10.726Z,81.73
2018-10-18T12:09:18.797Z,94.90
2018-10-18T12:13:26.932Z,76.60
2018-10-18T12:17:35.311Z,76.87
2018-10-18T12:21:43.447Z,80.93
2018-10-18T12:25:51.671Z,72.40
2018-10-18T12:29:59.736Z,74.40
2018-10-18T12:34:07.867Z,81.63
2018-10-18T12:38:16.115Z,74.97
2018-10-18T12:42:24.159Z,65.40
2018-10-18T12:46:32.332Z,65.70
2018-10-18T12:50:40.462Z,58.80
2018-10-18T12:54:48.636Z,62.70
2018-10-18T12:58:56.788Z,63.87
2018-10-18T13:03:05.028Z,57.63
2018-10-18T13:07:13.164Z,54.63
2018-10-18T13:11:21.301Z,57.80
2018-10-18T13:15:29.454Z,50.48
2018-10-18T13:19:37.612Z,59.60
2018-10-18T13:23:45.796Z,54.77
2018-10-18T13:27:53.976Z,58.40
2018-10-18T13:32:02.186Z,59.60
2018-10-18T13:36:10.385Z,55.20
2018-10-18T13:40:18.489Z,58.30
2018-10-18T13:44:26.668Z,62.03
2018-10-18T13:48:34.822Z,56.10
2018-10-18T13:52:42.999Z,68.77
2018-10-18T13:56:51.163Z,55.87
2018-10-18T14:00:59.342Z,59.33
2018-10-18T14:05:07.600Z,70.57
2018-10-18T14:09:15.735Z,58.60
2018-10-18T14:13:23.905Z,59.40
2018-10-18T14:17:32.229Z,59.37
2018-10-18T14:21:40.260Z,65.23
2018-10-18T14:25:48.411Z,63.07
2018-10-18T14:29:56.544Z,47.13
2018-10-18T14:34:05.243Z,53.20
2018-10-18T14:38:13.448Z,56.57
2018-10-18T14:42:21.569Z,48.30
2018-10-18T14:46:29.724Z,41.77
2018-10-18T14:50:38.010Z,46.23
2018-10-18T14:54:46.276Z,46.00
2018-10-18T14:58:54.467Z,49.13
2018-10-18T15:03:02.577Z,45.40
2018-10-18T15:07:10.704Z,50.50
2018-10-18T15:11:18.833Z,48.97
2018-10-18T15:15:26.962Z,43.20
2018-10-18T15:19:35.104Z,43.27
2018-10-18T15:23:43.247Z,41.30
2018-10-18T15:27:51.562Z,41.50
2018-10-18T15:32:00.232Z,44.37
2018-10-18T15:36:08.315Z,42.90
2018-10-18T15:40:16.431Z,36.57
2018-10-18T15:44:24.625Z,33.53
2018-10-18T15:48:32.718Z,44.50
2018-10-18T15:52:40.863Z,38.80
2018-10-18T15:56:49.003Z,39.40
2018-10-18T16:00:57.128Z,34.17
2018-10-18T16:05:05.782Z,40.00
2018-10-18T16:09:14.311Z,31.90
2018-10-18T16:13:22.473Z,52.43
2018-10-18T16:17:30.654Z,50.50
2018-10-18T16:21:38.740Z,62.73
2018-10-18T16:25:46.938Z,32.00
2018-10-18T16:29:55.080Z,29.37
2018-10-18T16:34:03.256Z,32.63
2018-10-18T16:38:11.509Z,22.40
2018-10-18T16:42:19.612Z,142.87
2018-10-18T16:46:27.791Z,86.90
2018-10-18T16:50:35.964Z,26.10
2018-10-18T16:54:44.195Z,39.07
2018-10-18T16:58:52.725Z,16.33
2018-10-18T17:03:00.903Z,20.70
2018-10-18T17:07:09.095Z,17.07
2018-10-18T17:11:17.365Z,17.40
2018-10-18T17:15:25.491Z,15.07
2018-10-18T17:19:33.784Z,18.80
2018-10-18T17:23:41.972Z,25.17
2018-10-18T17:27:50.253Z,22.30
2018-10-18T17:31:58.484Z,14.60
2018-10-18T17:36:06.636Z,14.90
2018-10-18T17:40:15.028Z,14.37
2018-10-18T17:44:23.061Z,14.03
2018-10-18T17:48:31.304Z,12.63
2018-10-18T17:52:39.500Z,13.30
2018-10-18T17:56:47.588Z,12.33
2018-10-18T18:00:55.725Z,15.23
2018-10-18T18:05:03.932Z,15.40
2018-10-18T18:09:12.528Z,15.72
2018-10-18T18:13:20.629Z,15.77
2018-10-18T18:17:28.760Z,16.00
2018-10-18T18:21:36.900Z,15.07
2018-10-18T18:25:45.103Z,16.53
2018-10-18T18:29:53.343Z,22.47
2018-10-18T18:34:01.565Z,23.10
2018-10-18T18:38:09.755Z,21.30
2018-10-18T18:42:17.885Z,22.60
2018-10-18T18:46:26.052Z,27.53
2018-10-18T18:50:34.255Z,28.67
2018-10-18T18:54:42.400Z,28.07
2018-10-18T18:58:50.541Z,29.60
2018-10-18T19:02:58.783Z,28.63
2018-10-18T19:07:06.912Z,29.17
2018-10-18T19:11:15.068Z,28.77
2018-10-18T19:15:23.223Z,30.87
2018-10-18T19:19:31.352Z,33.53
2018-10-18T19:23:39.591Z,25.50
2018-10-18T19:27:47.911Z,26.97
2018-10-18T19:31:56.108Z,27.67
2018-10-18T19:36:04.322Z,24.63
2018-10-18T19:40:12.484Z,24.53
2018-10-18T19:44:20.736Z,24.57
2018-10-18T19:48:28.989Z,29.90
2018-10-18T19:52:37.405Z,29.23
2018-10-18T19:56:45.399Z,38.03
2018-10-18T20:00:53.737Z,34.60
2018-10-18T20:05:02.046Z,38.37
2018-10-18T20:09:11.896Z,37.90
2018-10-18T20:13:20.265Z,38.13
2018-10-18T20:17:28.457Z,37.07
2018-10-18T20:21:36.661Z,30.37
2018-10-18T20:25:45.083Z,35.30
2018-10-18T20:29:53.067Z,43.83
2018-10-18T20:34:01.236Z,33.07
2018-10-18T20:38:09.411Z,36.50
2018-10-18T20:42:17.576Z,39.80
2018-10-18T20:46:25.771Z,37.73
2018-10-18T20:50:33.939Z,48.00
2018-10-18T20:54:42.103Z,39.90
2018-10-18T20:58:50.267Z,42.37
2018-10-18T21:02:58.484Z,49.80
2018-10-18T21:07:06.639Z,46.28
2018-10-18T21:11:14.821Z,47.90
2018-10-18T21:15:22.970Z,47.63
2018-10-18T21:19:31.132Z,50.67
2018-10-18T21:23:39.275Z,52.17
2018-10-18T21:27:47.460Z,46.90
2018-10-18T21:31:55.560Z,48.87
2018-10-18T21:36:03.707Z,45.80
2018-10-18T21:40:11.843Z,45.87
2018-10-18T21:44:19.967Z,47.43
2018-10-18T21:48:29.328Z,52.73
2018-10-18T21:52:37.464Z,54.27
2018-10-18T21:56:45.609Z,50.50
2018-10-18T22:00:53.751Z,50.67
2018-10-18T22:05:01.944Z,48.93
2018-10-18T22:09:10.089Z,45.53
2018-10-18T22:13:18.167Z,46.93
2018-10-18T22:17:26.297Z,61.20
2018-10-18T22:21:34.431Z,53.07
2018-10-18T22:25:42.615Z,46.87
2018-10-18T22:29:50.788Z,48.80
2018-10-18T22:33:59.036Z,49.20
2018-10-18T22:38:07.212Z,44.47
2018-10-18T22:42:15.387Z,44.80
2018-10-18T22:46:23.551Z,48.97
2018-10-18T22:50:31.719Z,47.83
2018-10-18T22:54:39.888Z,46.17
2018-10-18T22:58:48.059Z,42.20
2018-10-18T23:02:56.251Z,42.23
2018-10-18T23:07:04.414Z,40.10
2018-10-18T23:11:12.590Z,43.63
2018-10-18T23:15:20.761Z,43.43
2018-10-18T23:19:28.928Z,39.40
2018-10-18T23:23:37.108Z,39.73
2018-10-18T23:27:45.288Z,43.37
2018-10-18T23:31:53.460Z,37.43
2018-10-18T23:36:01.627Z,38.23
2018-10-18T23:40:09.815Z,35.70
2018-10-18T23:44:17.995Z,35.60
2018-10-18T23:48:26.164Z,36.20
2018-10-18T23:52:34.533Z,39.00
2018-10-18T23:56:42.697Z,39.67
